sensor_id;sensor_type;location;lat;lon;timestamp;P1;durP1;ratioP1;P2;durP2;ratioP2
11245;SDS011;59870;50.106;8.580;2023-03-01T00:01:40;12.13;;;10.90;;
11245;SDS011;59870;50.106;8.580;2023-03-01T00:04:08;13.37;;;11.33;;
11245;SDS011;59870;50.106;8.580;2023-03-01T00:06:35;10.20;;;9.37;;
11245;SDS011;59870;50.106;8.580;2023-03-01T00:09:04;10.87;;;9.80;;
11245;SDS011;59870;50.106;8.580;2023-03-01T00:11:32;11.87;;;10.67;;
11245;SDS011;59870;50.106;8.580;2023-03-01T00:14:01;13.03;;;10.60;;
11245;SDS011;59870;50.106;8.580;2023-03-01T00:16:39;11.30;;;10.23;;
11245;SDS011;59870;50.106;8.580;2023-03-01T00:19:08;11.97;;;10.83;;
11245;SDS011;59870;50.106;8.580;2023-03-01T00:21:39;11.90;;;10.90;;
11245;SDS011;59870;50.106;8.580;2023-03-01T00:24:07;11.47;;;10.37;;
11245;SDS011;59870;50.106;8.580;2023-03-01T00:26:35;11.80;;;10.63;;
11245;SDS011;59870;50.106;8.580;2023-03-01T00:29:03;11.60;;;10.53;;
11245;SDS011;59870;50.106;8.580;2023-03-01T00:31:31;11.97;;;10.60;;
11245;SDS011;59870;50.106;8.580;2023-03-01T00:34:01;11.23;;;10.17;;
11245;SDS011;59870;50.106;8.580;2023-03-01T00:36:31;15.13;;;11.60;;
11245;SDS011;59870;50.106;8.580;2023-03-01T00:39:02;11.43;;;10.43;;
11245;SDS011;59870;50.106;8.580;2023-03-01T00:41:31;12.90;;;11.67;;
11245;SDS011;59870;50.106;8.580;2023-03-01T00:44:01;12.10;;;10.90;;
11245;SDS011;59870;50.106;8.580;2023-03-01T00:46:29;11.90;;;10.80;;
11245;SDS011;59870;50.106;8.580;2023-03-01T00:49:02;12.93;;;11.63;;
11245;SDS011;59870;50.106;8.580;2023-03-01T00:51:31;12.27;;;10.80;;
11245;SDS011;59870;50.106;8.580;2023-03-01T00:53:59;11.90;;;10.70;;
11245;SDS011;59870;50.106;8.580;2023-03-01T00:56:29;13.57;;;11.10;;
11245;SDS011;59870;50.106;8.580;2023-03-01T00:58:58;12.60;;;11.30;;
11245;SDS011;59870;50.106;8.580;2023-03-01T01:01:26;12.70;;;11.47;;
11245;SDS011;59870;50.106;8.580;2023-03-01T01:04:00;14.17;;;11.33;;
11245;SDS011;59870;50.106;8.580;2023-03-01T01:06:46;12.97;;;10.43;;
11245;SDS011;59870;50.106;8.580;2023-03-01T01:09:14;12.43;;;11.20;;
11245;SDS011;59870;50.106;8.580;2023-03-01T01:11:45;10.50;;;9.60;;
11245;SDS011;59870;50.106;8.580;2023-03-01T01:14:14;11.83;;;10.83;;
11245;SDS011;59870;50.106;8.580;2023-03-01T01:16:42;11.93;;;10.83;;
11245;SDS011;59870;50.106;8.580;2023-03-01T01:19:11;11.93;;;10.83;;
11245;SDS011;59870;50.106;8.580;2023-03-01T01:21:39;12.73;;;11.47;;
11245;SDS011;59870;50.106;8.580;2023-03-01T01:24:10;12.33;;;11.13;;
11245;SDS011;59870;50.106;8.580;2023-03-01T01:26:37;13.17;;;11.00;;
11245;SDS011;59870;50.106;8.580;2023-03-01T01:29:05;12.30;;;11.17;;
11245;SDS011;59870;50.106;8.580;2023-03-01T01:31:33;12.20;;;11.10;;
11245;SDS011;59870;50.106;8.580;2023-03-01T01:34:02;13.70;;;12.33;;
11245;SDS011;59870;50.106;8.580;2023-03-01T01:36:31;13.23;;;11.13;;
11245;SDS011;59870;50.106;8.580;2023-03-01T01:38:59;12.90;;;11.60;;
11245;SDS011;59870;50.106;8.580;2023-03-01T01:41:27;12.00;;;10.83;;
11245;SDS011;59870;50.106;8.580;2023-03-01T01:47:30;12.73;;;11.43;;
11245;SDS011;59870;50.106;8.580;2023-03-01T01:49:49;12.60;;;11.40;;
11245;SDS011;59870;50.106;8.580;2023-03-01T01:57:45;12.97;;;11.67;;
11245;SDS011;59870;50.106;8.580;2023-03-01T02:00:18;12.47;;;11.23;;
11245;SDS011;59870;50.106;8.580;2023-03-01T02:02:49;13.47;;;12.17;;
11245;SDS011;59870;50.106;8.580;2023-03-01T02:05:26;15.67;;;12.40;;
11245;SDS011;59870;50.106;8.580;2023-03-01T02:07:55;14.00;;;12.53;;
11245;SDS011;59870;50.106;8.580;2023-03-01T02:10:25;12.87;;;11.57;;
11245;SDS011;59870;50.106;8.580;2023-03-01T02:12:54;13.07;;;11.80;;
11245;SDS011;59870;50.106;8.580;2023-03-01T02:15:23;13.53;;;12.13;;
11245;SDS011;59870;50.106;8.580;2023-03-01T02:17:51;12.63;;;11.43;;
11245;SDS011;59870;50.106;8.580;2023-03-01T02:22:53;13.07;;;11.67;;
11245;SDS011;59870;50.106;8.580;2023-03-01T02:30:34;14.80;;;12.17;;
11245;SDS011;59870;50.106;8.580;2023-03-01T02:33:03;13.37;;;12.13;;
11245;SDS011;59870;50.106;8.580;2023-03-01T02:35:32;13.13;;;11.93;;
11245;SDS011;59870;50.106;8.580;2023-03-01T02:38:06;14.83;;;12.87;;
11245;SDS011;59870;50.106;8.580;2023-03-01T02:40:35;13.03;;;11.63;;
11245;SDS011;59870;50.106;8.580;2023-03-01T02:43:07;12.90;;;11.63;;
11245;SDS011;59870;50.106;8.580;2023-03-01T02:45:37;13.80;;;12.40;;
11245;SDS011;59870;50.106;8.580;2023-03-01T02:48:04;15.37;;;12.53;;
11245;SDS011;59870;50.106;8.580;2023-03-01T02:50:43;13.87;;;12.43;;
11245;SDS011;59870;50.106;8.580;2023-03-01T02:53:28;13.93;;;12.47;;
11245;SDS011;59870;50.106;8.580;2023-03-01T02:56:16;16.03;;;12.00;;
11245;SDS011;59870;50.106;8.580;2023-03-01T02:58:44;13.07;;;11.73;;
11245;SDS011;59870;50.106;8.580;2023-03-01T03:01:15;15.27;;;12.07;;
11245;SDS011;59870;50.106;8.580;2023-03-01T03:03:43;12.27;;;11.00;;
11245;SDS011;59870;50.106;8.580;2023-03-01T03:06:11;16.37;;;13.03;;
11245;SDS011;59870;50.106;8.580;2023-03-01T03:08:38;13.57;;;12.23;;
11245;SDS011;59870;50.106;8.580;2023-03-01T03:11:06;16.73;;;12.23;;
11245;SDS011;59870;50.106;8.580;2023-03-01T03:13:34;14.17;;;12.73;;
11245;SDS011;59870;50.106;8.580;2023-03-01T03:16:02;14.90;;;12.67;;
11245;SDS011;59870;50.106;8.580;2023-03-01T03:18:30;14.10;;;12.60;;
11245;SDS011;59870;50.106;8.580;2023-03-01T03:20:58;14.67;;;12.17;;
11245;SDS011;59870;50.106;8.580;2023-03-01T03:23:25;14.10;;;12.70;;
11245;SDS011;59870;50.106;8.580;2023-03-01T03:25:52;13.93;;;12.00;;
11245;SDS011;59870;50.106;8.580;2023-03-01T03:28:20;14.23;;;12.73;;
11245;SDS011;59870;50.106;8.580;2023-03-01T03:30:47;17.20;;;12.97;;
11245;SDS011;59870;50.106;8.580;2023-03-01T03:33:16;17.43;;;13.37;;
11245;SDS011;59870;50.106;8.580;2023-03-01T03:35:45;13.30;;;12.10;;
11245;SDS011;59870;50.106;8.580;2023-03-01T03:38:14;16.57;;;13.30;;
11245;SDS011;59870;50.106;8.580;2023-03-01T03:40:44;14.07;;;12.60;;
11245;SDS011;59870;50.106;8.580;2023-03-01T03:43:15;16.60;;;13.33;;
11245;SDS011;59870;50.106;8.580;2023-03-01T03:45:48;14.80;;;13.30;;
11245;SDS011;59870;50.106;8.580;2023-03-01T03:48:17;13.93;;;12.43;;
11245;SDS011;59870;50.106;8.580;2023-03-01T03:50:50;14.23;;;12.70;;
11245;SDS011;59870;50.106;8.580;2023-03-01T03:53:19;15.77;;;13.30;;
11245;SDS011;59870;50.106;8.580;2023-03-01T03:55:47;15.53;;;13.80;;
11245;SDS011;59870;50.106;8.580;2023-03-01T03:58:19;18.10;;;14.23;;
11245;SDS011;59870;50.106;8.580;2023-03-01T04:00:48;14.73;;;13.23;;
11245;SDS011;59870;50.106;8.580;2023-03-01T04:03:18;15.43;;;13.00;;
11245;SDS011;59870;50.106;8.580;2023-03-01T04:05:46;19.00;;;13.63;;
11245;SDS011;59870;50.106;8.580;2023-03-01T04:08:14;16.00;;;13.63;;
11245;SDS011;59870;50.106;8.580;2023-03-01T04:10:43;16.73;;;13.43;;
11245;SDS011;59870;50.106;8.580;2023-03-01T04:13:13;18.40;;;13.90;;
11245;SDS011;59870;50.106;8.580;2023-03-01T04:15:42;16.43;;;13.93;;
11245;SDS011;59870;50.106;8.580;2023-03-01T04:18:13;17.20;;;14.17;;
11245;SDS011;59870;50.106;8.580;2023-03-01T04:20:42;16.97;;;14.50;;
11245;SDS011;59870;50.106;8.580;2023-03-01T04:23:16;18.87;;;13.97;;
11245;SDS011;59870;50.106;8.580;2023-03-01T04:25:54;19.10;;;14.43;;
11245;SDS011;59870;50.106;8.580;2023-03-01T04:30:53;15.67;;;13.70;;
11245;SDS011;59870;50.106;8.580;2023-03-01T04:33:21;18.07;;;14.20;;
11245;SDS011;59870;50.106;8.580;2023-03-01T04:35:50;15.40;;;14.00;;
11245;SDS011;59870;50.106;8.580;2023-03-01T04:38:19;19.67;;;14.70;;
11245;SDS011;59870;50.106;8.580;2023-03-01T04:40:47;16.30;;;14.43;;
11245;SDS011;59870;50.106;8.580;2023-03-01T04:43:15;16.80;;;13.70;;
11245;SDS011;59870;50.106;8.580;2023-03-01T04:45:42;15.00;;;13.47;;
11245;SDS011;59870;50.106;8.580;2023-03-01T04:48:10;16.20;;;14.60;;
11245;SDS011;59870;50.106;8.580;2023-03-01T04:50:37;15.67;;;14.03;;
11245;SDS011;59870;50.106;8.580;2023-03-01T04:53:04;20.10;;;14.60;;
11245;SDS011;59870;50.106;8.580;2023-03-01T04:55:33;21.43;;;14.30;;
11245;SDS011;59870;50.106;8.580;2023-03-01T04:58:00;19.33;;;14.87;;
11245;SDS011;59870;50.106;8.580;2023-03-01T05:00:28;15.77;;;14.07;;
11245;SDS011;59870;50.106;8.580;2023-03-01T05:02:56;16.50;;;14.80;;
11245;SDS011;59870;50.106;8.580;2023-03-01T05:05:26;17.93;;;13.83;;
11245;SDS011;59870;50.106;8.580;2023-03-01T05:07:56;18.37;;;15.33;;
11245;SDS011;59870;50.106;8.580;2023-03-01T05:10:26;16.77;;;14.83;;
11245;SDS011;59870;50.106;8.580;2023-03-01T05:12:56;18.07;;;14.33;;
11245;SDS011;59870;50.106;8.580;2023-03-01T05:15:25;17.40;;;14.73;;
11245;SDS011;59870;50.106;8.580;2023-03-01T05:17:57;16.03;;;14.57;;
11245;SDS011;59870;50.106;8.580;2023-03-01T05:20:26;17.83;;;14.30;;
11245;SDS011;59870;50.106;8.580;2023-03-01T05:22:58;17.90;;;14.63;;
11245;SDS011;59870;50.106;8.580;2023-03-01T05:25:26;16.10;;;14.47;;
11245;SDS011;59870;50.106;8.580;2023-03-01T05:27:54;17.10;;;14.27;;
11245;SDS011;59870;50.106;8.580;2023-03-01T05:30:21;17.20;;;14.40;;
11245;SDS011;59870;50.106;8.580;2023-03-01T05:32:49;17.00;;;14.13;;
11245;SDS011;59870;50.106;8.580;2023-03-01T05:35:22;16.87;;;14.10;;
11245;SDS011;59870;50.106;8.580;2023-03-01T05:37:50;16.30;;;14.60;;
11245;SDS011;59870;50.106;8.580;2023-03-01T05:40:19;19.20;;;14.53;;
11245;SDS011;59870;50.106;8.580;2023-03-01T05:42:48;17.50;;;13.87;;
11245;SDS011;59870;50.106;8.580;2023-03-01T05:45:23;16.77;;;14.27;;
11245;SDS011;59870;50.106;8.580;2023-03-01T05:47:53;17.47;;;14.80;;
11245;SDS011;59870;50.106;8.580;2023-03-01T05:50:22;15.10;;;13.60;;
11245;SDS011;59870;50.106;8.580;2023-03-01T05:53:00;15.67;;;13.27;;
11245;SDS011;59870;50.106;8.580;2023-03-01T05:55:29;16.37;;;14.33;;
11245;SDS011;59870;50.106;8.580;2023-03-01T05:57:59;18.23;;;14.63;;
11245;SDS011;59870;50.106;8.580;2023-03-01T06:00:28;15.60;;;14.00;;
11245;SDS011;59870;50.106;8.580;2023-03-01T06:02:57;17.03;;;14.70;;
11245;SDS011;59870;50.106;8.580;2023-03-01T06:05:25;17.23;;;14.67;;
11245;SDS011;59870;50.106;8.580;2023-03-01T06:07:53;19.20;;;15.73;;
11245;SDS011;59870;50.106;8.580;2023-03-01T06:10:21;15.20;;;13.60;;
11245;SDS011;59870;50.106;8.580;2023-03-01T06:12:49;19.07;;;14.70;;
11245;SDS011;59870;50.106;8.580;2023-03-01T06:15:16;18.37;;;14.00;;
11245;SDS011;59870;50.106;8.580;2023-03-01T06:17:45;17.83;;;14.27;;
11245;SDS011;59870;50.106;8.580;2023-03-01T06:20:14;19.17;;;15.20;;
11245;SDS011;59870;50.106;8.580;2023-03-01T06:22:44;17.97;;;14.43;;
11245;SDS011;59870;50.106;8.580;2023-03-01T06:25:14;19.17;;;15.00;;
11245;SDS011;59870;50.106;8.580;2023-03-01T06:27:44;17.37;;;14.13;;
11245;SDS011;59870;50.106;8.580;2023-03-01T06:30:12;17.17;;;15.30;;
11245;SDS011;59870;50.106;8.580;2023-03-01T06:32:42;19.90;;;14.97;;
11245;SDS011;59870;50.106;8.580;2023-03-01T06:35:10;15.97;;;14.43;;
11245;SDS011;59870;50.106;8.580;2023-03-01T06:37:39;18.50;;;14.90;;
11245;SDS011;59870;50.106;8.580;2023-03-01T06:40:07;18.20;;;14.90;;
11245;SDS011;59870;50.106;8.580;2023-03-01T06:42:39;18.13;;;13.60;;
11245;SDS011;59870;50.106;8.580;2023-03-01T06:45:07;19.97;;;15.27;;
11245;SDS011;59870;50.106;8.580;2023-03-01T06:47:35;19.57;;;15.80;;
11245;SDS011;59870;50.106;8.580;2023-03-01T06:50:03;21.03;;;14.90;;
11245;SDS011;59870;50.106;8.580;2023-03-01T06:52:30;16.70;;;14.93;;
11245;SDS011;59870;50.106;8.580;2023-03-01T06:54:58;21.97;;;15.47;;
11245;SDS011;59870;50.106;8.580;2023-03-01T06:57:26;18.60;;;14.87;;
11245;SDS011;59870;50.106;8.580;2023-03-01T06:59:54;17.47;;;14.13;;
11245;SDS011;59870;50.106;8.580;2023-03-01T07:02:21;19.20;;;14.37;;
11245;SDS011;59870;50.106;8.580;2023-03-01T07:04:49;17.47;;;14.77;;
11245;SDS011;59870;50.106;8.580;2023-03-01T07:07:17;16.23;;;14.57;;
11245;SDS011;59870;50.106;8.580;2023-03-01T07:09:45;18.53;;;15.10;;
11245;SDS011;59870;50.106;8.580;2023-03-01T07:12:13;18.60;;;15.00;;
11245;SDS011;59870;50.106;8.580;2023-03-01T07:14:41;20.70;;;14.47;;
11245;SDS011;59870;50.106;8.580;2023-03-01T07:17:10;15.87;;;14.20;;
11245;SDS011;59870;50.106;8.580;2023-03-01T07:19:37;20.70;;;15.20;;
11245;SDS011;59870;50.106;8.580;2023-03-01T07:22:05;16.13;;;14.17;;
11245;SDS011;59870;50.106;8.580;2023-03-01T07:24:34;18.53;;;15.00;;
11245;SDS011;59870;50.106;8.580;2023-03-01T07:27:02;17.13;;;14.47;;
11245;SDS011;59870;50.106;8.580;2023-03-01T07:29:30;16.57;;;14.83;;
11245;SDS011;59870;50.106;8.580;2023-03-01T07:31:57;20.20;;;15.23;;
11245;SDS011;59870;50.106;8.580;2023-03-01T07:34:25;16.17;;;14.50;;
11245;SDS011;59870;50.106;8.580;2023-03-01T07:36:52;18.23;;;14.90;;
11245;SDS011;59870;50.106;8.580;2023-03-01T07:39:20;18.20;;;14.47;;
11245;SDS011;59870;50.106;8.580;2023-03-01T07:41:50;17.80;;;15.20;;
11245;SDS011;59870;50.106;8.580;2023-03-01T07:44:21;17.00;;;14.97;;
11245;SDS011;59870;50.106;8.580;2023-03-01T07:46:48;17.37;;;15.53;;
11245;SDS011;59870;50.106;8.580;2023-03-01T07:49:15;18.27;;;15.23;;
11245;SDS011;59870;50.106;8.580;2023-03-01T07:51:43;16.57;;;14.73;;
11245;SDS011;59870;50.106;8.580;2023-03-01T07:54:10;17.37;;;15.50;;
11245;SDS011;59870;50.106;8.580;2023-03-01T07:56:37;19.87;;;15.40;;
11245;SDS011;59870;50.106;8.580;2023-03-01T07:59:05;22.07;;;15.30;;
11245;SDS011;59870;50.106;8.580;2023-03-01T08:01:32;19.47;;;15.13;;
11245;SDS011;59870;50.106;8.580;2023-03-01T08:03:59;19.80;;;15.27;;
11245;SDS011;59870;50.106;8.580;2023-03-01T08:06:28;19.73;;;14.53;;
11245;SDS011;59870;50.106;8.580;2023-03-01T08:08:56;23.33;;;16.07;;
11245;SDS011;59870;50.106;8.580;2023-03-01T08:11:25;22.03;;;17.27;;
11245;SDS011;59870;50.106;8.580;2023-03-01T08:13:55;19.53;;;15.50;;
11245;SDS011;59870;50.106;8.580;2023-03-01T08:16:23;21.63;;;16.13;;
11245;SDS011;59870;50.106;8.580;2023-03-01T08:18:50;20.30;;;15.87;;
11245;SDS011;59870;50.106;8.580;2023-03-01T08:21:18;20.40;;;15.87;;
11245;SDS011;59870;50.106;8.580;2023-03-01T08:23:45;18.17;;;15.27;;
11245;SDS011;59870;50.106;8.580;2023-03-01T08:26:14;18.77;;;15.50;;
11245;SDS011;59870;50.106;8.580;2023-03-01T08:28:45;18.63;;;15.67;;
11245;SDS011;59870;50.106;8.580;2023-03-01T08:31:17;18.47;;;14.93;;
11245;SDS011;59870;50.106;8.580;2023-03-01T08:33:48;20.70;;;15.57;;
11245;SDS011;59870;50.106;8.580;2023-03-01T08:36:24;17.77;;;14.83;;
11245;SDS011;59870;50.106;8.580;2023-03-01T08:38:53;18.27;;;15.13;;
11245;SDS011;59870;50.106;8.580;2023-03-01T08:41:21;18.87;;;15.17;;
11245;SDS011;59870;50.106;8.580;2023-03-01T08:43:49;16.47;;;14.73;;
11245;SDS011;59870;50.106;8.580;2023-03-01T08:46:17;21.63;;;16.20;;
11245;SDS011;59870;50.106;8.580;2023-03-01T08:48:44;19.43;;;14.97;;
11245;SDS011;59870;50.106;8.580;2023-03-01T08:51:13;18.57;;;14.37;;
11245;SDS011;59870;50.106;8.580;2023-03-01T08:53:43;16.03;;;14.33;;
11245;SDS011;59870;50.106;8.580;2023-03-01T08:56:11;14.90;;;13.40;;
11245;SDS011;59870;50.106;8.580;2023-03-01T08:58:39;20.37;;;14.73;;
11245;SDS011;59870;50.106;8.580;2023-03-01T09:01:07;14.77;;;13.27;;
11245;SDS011;59870;50.106;8.580;2023-03-01T09:03:36;16.17;;;14.33;;
11245;SDS011;59870;50.106;8.580;2023-03-01T09:06:04;17.33;;;13.90;;
11245;SDS011;59870;50.106;8.580;2023-03-01T09:08:37;20.77;;;14.33;;
11245;SDS011;59870;50.106;8.580;2023-03-01T09:11:06;15.93;;;14.30;;
11245;SDS011;59870;50.106;8.580;2023-03-01T09:13:35;15.43;;;13.87;;
11245;SDS011;59870;50.106;8.580;2023-03-01T09:16:04;15.97;;;13.50;;
11245;SDS011;59870;50.106;8.580;2023-03-01T09:18:35;16.03;;;14.17;;
11245;SDS011;59870;50.106;8.580;2023-03-01T09:21:09;15.20;;;13.30;;
11245;SDS011;59870;50.106;8.580;2023-03-01T09:23:43;15.50;;;13.87;;
11245;SDS011;59870;50.106;8.580;2023-03-01T09:26:13;15.83;;;14.13;;
11245;SDS011;59870;50.106;8.580;2023-03-01T09:28:46;15.83;;;14.17;;
11245;SDS011;59870;50.106;8.580;2023-03-01T09:31:16;16.60;;;13.70;;
11245;SDS011;59870;50.106;8.580;2023-03-01T09:33:46;16.53;;;14.80;;
11245;SDS011;59870;50.106;8.580;2023-03-01T09:36:19;15.27;;;13.23;;
11245;SDS011;59870;50.106;8.580;2023-03-01T09:38:49;15.53;;;13.57;;
11245;SDS011;59870;50.106;8.580;2023-03-01T09:41:21;15.03;;;13.63;;
11245;SDS011;59870;50.106;8.580;2023-03-01T09:44:18;15.67;;;13.80;;
11245;SDS011;59870;50.106;8.580;2023-03-01T09:46:58;19.63;;;14.53;;
11245;SDS011;59870;50.106;8.580;2023-03-01T09:51:58;15.93;;;14.20;;
11245;SDS011;59870;50.106;8.580;2023-03-01T09:54:30;18.93;;;14.23;;
11245;SDS011;59870;50.106;8.580;2023-03-01T09:59:39;15.27;;;13.77;;
11245;SDS011;59870;50.106;8.580;2023-03-01T10:02:51;15.87;;;14.27;;
11245;SDS011;59870;50.106;8.580;2023-03-01T10:05:31;17.13;;;15.33;;
11245;SDS011;59870;50.106;8.580;2023-03-01T10:10:38;14.60;;;13.20;;
11245;SDS011;59870;50.106;8.580;2023-03-01T10:16:13;15.67;;;13.33;;
11245;SDS011;59870;50.106;8.580;2023-03-01T10:18:45;17.17;;;15.37;;
11245;SDS011;59870;50.106;8.580;2023-03-01T10:21:18;15.27;;;13.80;;
11245;SDS011;59870;50.106;8.580;2023-03-01T10:23:47;16.00;;;14.30;;
11245;SDS011;59870;50.106;8.580;2023-03-01T10:29:08;14.57;;;13.07;;
11245;SDS011;59870;50.106;8.580;2023-03-01T10:31:42;16.00;;;14.30;;
11245;SDS011;59870;50.106;8.580;2023-03-01T10:34:25;15.77;;;14.17;;
11245;SDS011;59870;50.106;8.580;2023-03-01T10:36:56;16.13;;;14.47;;
11245;SDS011;59870;50.106;8.580;2023-03-01T10:39:28;16.10;;;14.10;;
11245;SDS011;59870;50.106;8.580;2023-03-01T10:44:50;14.90;;;13.37;;
11245;SDS011;59870;50.106;8.580;2023-03-01T10:47:43;16.63;;;13.67;;
11245;SDS011;59870;50.106;8.580;2023-03-01T10:50:41;16.37;;;14.10;;
11245;SDS011;59870;50.106;8.580;2023-03-01T10:53:49;16.23;;;14.20;;
11245;SDS011;59870;50.106;8.580;2023-03-01T10:56:20;16.80;;;13.43;;
11245;SDS011;59870;50.106;8.580;2023-03-01T10:59:32;15.10;;;13.70;;
11245;SDS011;59870;50.106;8.580;2023-03-01T11:02:17;22.70;;;14.23;;
11245;SDS011;59870;50.106;8.580;2023-03-01T11:04:59;13.90;;;12.60;;
11245;SDS011;59870;50.106;8.580;2023-03-01T11:07:52;15.30;;;13.53;;
11245;SDS011;59870;50.106;8.580;2023-03-01T11:10:23;15.73;;;14.13;;
11245;SDS011;59870;50.106;8.580;2023-03-01T11:14:56;16.93;;;13.43;;
11245;SDS011;59870;50.106;8.580;2023-03-01T11:17:30;14.93;;;12.77;;
11245;SDS011;59870;50.106;8.580;2023-03-01T11:35:25;17.23;;;13.77;;
11245;SDS011;59870;50.106;8.580;2023-03-01T11:45:49;14.77;;;13.27;;
11245;SDS011;59870;50.106;8.580;2023-03-01T11:51:19;18.80;;;12.83;;
11245;SDS011;59870;50.106;8.580;2023-03-01T11:54:04;13.47;;;12.07;;
11245;SDS011;59870;50.106;8.580;2023-03-01T11:56:43;13.43;;;11.20;;
11245;SDS011;59870;50.106;8.580;2023-03-01T12:02:07;15.23;;;12.43;;
11245;SDS011;59870;50.106;8.580;2023-03-01T12:11:03;12.90;;;11.60;;
11245;SDS011;59870;50.106;8.580;2023-03-01T12:13:59;13.60;;;12.17;;
11245;SDS011;59870;50.106;8.580;2023-03-01T12:25:55;13.20;;;11.40;;
11245;SDS011;59870;50.106;8.580;2023-03-01T12:29:00;12.30;;;10.93;;
11245;SDS011;59870;50.106;8.580;2023-03-01T12:40:33;12.33;;;10.97;;
11245;SDS011;59870;50.106;8.580;2023-03-01T12:43:21;11.73;;;10.53;;
11245;SDS011;59870;50.106;8.580;2023-03-01T12:48:31;11.63;;;10.63;;
11245;SDS011;59870;50.106;8.580;2023-03-01T12:51:21;12.87;;;11.53;;
11245;SDS011;59870;50.106;8.580;2023-03-01T12:53:53;12.63;;;11.30;;
11245;SDS011;59870;50.106;8.580;2023-03-01T12:56:23;12.30;;;11.03;;
11245;SDS011;59870;50.106;8.580;2023-03-01T13:07:31;16.00;;;10.40;;
11245;SDS011;59870;50.106;8.580;2023-03-01T13:13:02;12.60;;;11.30;;
11245;SDS011;59870;50.106;8.580;2023-03-01T13:15:40;14.30;;;12.70;;
11245;SDS011;59870;50.106;8.580;2023-03-01T13:23:26;11.83;;;10.63;;
11245;SDS011;59870;50.106;8.580;2023-03-01T13:26:11;12.80;;;10.70;;
11245;SDS011;59870;50.106;8.580;2023-03-01T13:33:51;11.53;;;10.40;;
11245;SDS011;59870;50.106;8.580;2023-03-01T13:38:58;10.80;;;9.90;;
11245;SDS011;59870;50.106;8.580;2023-03-01T13:44:11;10.77;;;9.67;;
11245;SDS011;59870;50.106;8.580;2023-03-01T13:46:48;10.83;;;9.60;;
11245;SDS011;59870;50.106;8.580;2023-03-01T13:49:18;10.10;;;9.10;;
11245;SDS011;59870;50.106;8.580;2023-03-01T13:51:50;12.53;;;10.10;;
11245;SDS011;59870;50.106;8.580;2023-03-01T13:54:26;10.67;;;9.63;;
11245;SDS011;59870;50.106;8.580;2023-03-01T13:57:00;9.70;;;8.90;;
11245;SDS011;59870;50.106;8.580;2023-03-01T13:59:29;10.93;;;9.83;;
11245;SDS011;59870;50.106;8.580;2023-03-01T14:01:59;13.80;;;9.80;;
11245;SDS011;59870;50.106;8.580;2023-03-01T14:04:28;10.77;;;9.77;;
11245;SDS011;59870;50.106;8.580;2023-03-01T14:09:44;10.90;;;9.93;;
11245;SDS011;59870;50.106;8.580;2023-03-01T14:15:49;10.20;;;9.10;;
11245;SDS011;59870;50.106;8.580;2023-03-01T14:18:03;10.13;;;9.23;;
11245;SDS011;59870;50.106;8.580;2023-03-01T14:20:43;11.87;;;10.10;;
11245;SDS011;59870;50.106;8.580;2023-03-01T14:23:18;12.33;;;10.13;;
11245;SDS011;59870;50.106;8.580;2023-03-01T14:25:51;10.20;;;9.23;;
11245;SDS011;59870;50.106;8.580;2023-03-01T14:28:23;12.73;;;9.77;;
11245;SDS011;59870;50.106;8.580;2023-03-01T14:30:54;11.30;;;10.20;;
11245;SDS011;59870;50.106;8.580;2023-03-01T14:33:25;10.37;;;9.57;;
11245;SDS011;59870;50.106;8.580;2023-03-01T14:38:35;10.83;;;9.60;;
11245;SDS011;59870;50.106;8.580;2023-03-01T14:41:11;11.47;;;10.37;;
11245;SDS011;59870;50.106;8.580;2023-03-01T14:43:46;24.73;;;9.40;;
11245;SDS011;59870;50.106;8.580;2023-03-01T14:46:19;16.30;;;9.93;;
11245;SDS011;59870;50.106;8.580;2023-03-01T14:48:49;11.17;;;10.17;;
11245;SDS011;59870;50.106;8.580;2023-03-01T14:51:17;10.40;;;9.30;;
11245;SDS011;59870;50.106;8.580;2023-03-01T14:53:45;12.33;;;10.37;;
11245;SDS011;59870;50.106;8.580;2023-03-01T14:56:17;13.33;;;9.40;;
11245;SDS011;59870;50.106;8.580;2023-03-01T14:58:45;13.33;;;9.60;;
11245;SDS011;59870;50.106;8.580;2023-03-01T15:01:17;12.13;;;9.53;;
11245;SDS011;59870;50.106;8.580;2023-03-01T15:03:46;10.67;;;9.67;;
11245;SDS011;59870;50.106;8.580;2023-03-01T15:06:17;11.27;;;10.17;;
11245;SDS011;59870;50.106;8.580;2023-03-01T15:08:47;10.30;;;9.23;;
11245;SDS011;59870;50.106;8.580;2023-03-01T15:11:21;10.77;;;9.50;;
11245;SDS011;59870;50.106;8.580;2023-03-01T15:13:54;10.17;;;9.17;;
11245;SDS011;59870;50.106;8.580;2023-03-01T15:16:29;10.80;;;9.70;;
11245;SDS011;59870;50.106;8.580;2023-03-01T15:19:03;10.10;;;8.73;;
11245;SDS011;59870;50.106;8.580;2023-03-01T15:21:34;11.53;;;10.20;;
11245;SDS011;59870;50.106;8.580;2023-03-01T15:24:16;10.83;;;8.87;;
11245;SDS011;59870;50.106;8.580;2023-03-01T15:26:57;10.43;;;9.53;;
11245;SDS011;59870;50.106;8.580;2023-03-01T15:29:29;12.67;;;9.53;;
11245;SDS011;59870;50.106;8.580;2023-03-01T15:32:46;11.20;;;9.17;;
11245;SDS011;59870;50.106;8.580;2023-03-01T15:34:50;10.43;;;9.43;;
11245;SDS011;59870;50.106;8.580;2023-03-01T15:40:25;14.70;;;9.10;;
11245;SDS011;59870;50.106;8.580;2023-03-01T15:43:00;9.87;;;8.83;;
11245;SDS011;59870;50.106;8.580;2023-03-01T15:45:30;10.17;;;9.03;;
11245;SDS011;59870;50.106;8.580;2023-03-01T15:48:02;12.33;;;9.37;;
11245;SDS011;59870;50.106;8.580;2023-03-01T15:50:32;11.30;;;9.27;;
11245;SDS011;59870;50.106;8.580;2023-03-01T15:53:04;9.60;;;8.80;;
11245;SDS011;59870;50.106;8.580;2023-03-01T15:55:38;10.30;;;9.27;;
11245;SDS011;59870;50.106;8.580;2023-03-01T15:58:08;11.37;;;9.03;;
11245;SDS011;59870;50.106;8.580;2023-03-01T16:00:38;10.23;;;9.10;;
11245;SDS011;59870;50.106;8.580;2023-03-01T16:03:24;13.67;;;9.30;;
11245;SDS011;59870;50.106;8.580;2023-03-01T16:05:51;11.33;;;10.13;;
11245;SDS011;59870;50.106;8.580;2023-03-01T16:08:18;10.60;;;9.60;;
11245;SDS011;59870;50.106;8.580;2023-03-01T16:10:46;11.13;;;9.57;;
11245;SDS011;59870;50.106;8.580;2023-03-01T16:13:16;9.93;;;9.03;;
11245;SDS011;59870;50.106;8.580;2023-03-01T16:15:44;11.07;;;9.80;;
11245;SDS011;59870;50.106;8.580;2023-03-01T16:18:12;10.23;;;9.37;;
11245;SDS011;59870;50.106;8.580;2023-03-01T16:20:39;11.50;;;10.07;;
11245;SDS011;59870;50.106;8.580;2023-03-01T16:23:07;10.33;;;9.43;;
11245;SDS011;59870;50.106;8.580;2023-03-01T16:25:37;11.27;;;9.77;;
11245;SDS011;59870;50.106;8.580;2023-03-01T16:28:04;11.07;;;8.97;;
11245;SDS011;59870;50.106;8.580;2023-03-01T16:30:37;12.30;;;9.60;;
11245;SDS011;59870;50.106;8.580;2023-03-01T16:33:06;11.37;;;10.23;;
11245;SDS011;59870;50.106;8.580;2023-03-01T16:35:51;10.60;;;9.60;;
11245;SDS011;59870;50.106;8.580;2023-03-01T16:38:19;13.67;;;10.13;;
11245;SDS011;59870;50.106;8.580;2023-03-01T16:40:47;11.80;;;10.67;;
11245;SDS011;59870;50.106;8.580;2023-03-01T16:43:20;17.00;;;11.97;;
11245;SDS011;59870;50.106;8.580;2023-03-01T16:49:45;13.80;;;11.20;;
11245;SDS011;59870;50.106;8.580;2023-03-01T16:52:15;12.37;;;10.50;;
11245;SDS011;59870;50.106;8.580;2023-03-01T16:54:45;11.73;;;10.47;;
11245;SDS011;59870;50.106;8.580;2023-03-01T16:57:13;10.73;;;9.67;;
11245;SDS011;59870;50.106;8.580;2023-03-01T16:59:41;10.40;;;9.43;;
11245;SDS011;59870;50.106;8.580;2023-03-01T17:02:10;10.70;;;9.60;;
11245;SDS011;59870;50.106;8.580;2023-03-01T17:04:39;12.63;;;9.33;;